Time;durP1;ratioP1;P1;durP2;ratioP2;P2;SDS_P1;SDS_P2;PMS_P1;PMS_P2;Temp;Humidity;BMP_temperature;BMP_pressure;BME280_temperature;BME280_humidity;BME280_pressure;Samples;Min_cycle;Max_cycle;Signal;HPM_P1;HPM_P2
2021/05/03 00:00:19;;;;;;;13.70;3.00;;;;;;;24.63;33.01;99017.84;5033722;28;20033;-38
2021/05/03 00:02:44;;;;;;;11.00;2.97;;;;;;;24.33;33.71;99021.03;5017522;28;20021;-38
2021/05/03 00:05:19;;;;;;;16.23;3.50;;;;;;;24.29;33.82;99021.97;5043043;28;20056;-38
2021/05/03 00:07:44;;;;;;;14.15;3.28;;;;;;;24.54;33.15;99032.22;5041626;28;20158;-38
2021/05/03 00:10:10;;;;;;;14.80;3.22;;;;;;;24.36;33.66;99036.72;5035006;28;20030;-38
2021/05/03 00:12:35;;;;;;;16.42;3.20;;;;;;;24.58;33.18;99037.81;5032074;28;20053;-38
2021/05/03 00:15:01;;;;;;;12.85;3.28;;;;;;;24.71;34.39;99044.25;5050224;28;20032;-38
2021/05/03 00:17:26;;;;;;;17.00;3.28;;;;;;;24.55;34.51;99041.16;5049986;28;20033;-37
2021/05/03 00:19:52;;;;;;;15.05;3.17;;;;;;;24.43;33.97;99049.88;5036731;28;20029;-38
2021/05/03 00:22:17;;;;;;;18.17;3.30;;;;;;;24.46;33.46;99043.00;5050152;28;20516;-39
2021/05/03 00:24:43;;;;;;;22.67;3.47;;;;;;;24.43;33.22;99043.63;5050356;28;20441;-38
2021/05/03 00:27:08;;;;;;;16.50;3.10;;;;;;;24.30;33.61;99046.13;5040323;28;20025;-38
2021/05/03 00:29:33;;;;;;;15.43;3.45;;;;;;;24.31;33.36;99042.31;5043243;28;20056;-38
2021/05/03 00:31:59;;;;;;;13.38;3.13;;;;;;;23.99;33.96;99041.47;5033810;28;20033;-38
2021/05/03 00:34:24;;;;;;;15.80;3.28;;;;;;;24.09;33.63;99032.25;5049893;28;20056;-38
2021/05/03 00:36:50;;;;;;;15.60;3.90;;;;;;;24.16;33.43;99029.91;5037773;28;20021;-38
2021/05/03 00:39:15;;;;;;;17.77;3.25;;;;;;;24.16;33.36;99023.66;5045577;28;20029;-38
2021/05/03 00:41:41;;;;;;;18.35;3.58;;;;;;;24.40;32.95;99026.81;5033215;28;20038;-37
2021/05/03 00:44:06;;;;;;;14.27;3.35;;;;;;;24.29;33.23;99025.47;5048092;28;20082;-38
2021/05/03 00:46:32;;;;;;;13.88;2.88;;;;;;;24.38;32.92;99033.69;5036808;28;20041;-39
2021/05/03 00:48:57;;;;;;;15.40;3.08;;;;;;;24.64;32.27;99033.84;5034539;28;20033;-39
2021/05/03 00:51:23;;;;;;;21.42;3.22;;;;;;;24.55;32.27;99041.94;5033268;28;20039;-38
2021/05/03 00:53:48;;;;;;;14.50;3.20;;;;;;;24.17;33.40;99042.38;5033321;28;20034;-40
2021/05/03 00:56:14;;;;;;;11.32;3.17;;;;;;;24.30;32.70;99046.13;5045827;28;20055;-38
2021/05/03 00:58:39;;;;;;;11.32;3.13;;;;;;;24.41;32.68;99046.66;5048335;28;20029;-37
2021/05/03 01:01:05;;;;;;;18.98;3.38;;;;;;;24.41;33.17;99049.38;5031689;28;20442;-37
2021/05/03 01:03:30;;;;;;;14.20;3.60;;;;;;;24.24;32.75;99046.56;5042733;28;20370;-39
2021/05/03 01:05:56;;;;;;;16.10;3.10;;;;;;;24.10;32.99;99044.72;5038313;28;20139;-38
2021/05/03 01:08:21;;;;;;;14.80;3.33;;;;;;;23.91;33.09;99044.09;5048135;28;20418;-38
2021/05/03 01:10:47;;;;;;;13.32;3.30;;;;;;;23.84;33.38;99032.88;5036518;28;20177;-39
2021/05/03 01:13:12;;;;;;;15.73;3.30;;;;;;;23.95;33.23;99039.66;5045241;28;20049;-38
2021/05/03 01:15:38;;;;;;;14.13;3.30;;;;;;;24.06;33.36;99046.44;5032647;28;20021;-38
2021/05/03 01:18:04;;;;;;;15.32;3.15;;;;;;;24.20;32.31;99043.69;5032646;28;20163;-38
2021/05/03 01:20:31;;;;;;;14.82;3.20;;;;;;;23.62;33.21;99050.72;5049114;28;20036;-38
2021/05/03 01:22:58;;;;;;;17.58;3.45;;;;;;;23.51;34.04;99063.72;5038041;28;20079;-37
2021/05/03 01:25:27;;;;;;;16.30;3.53;;;;;;;23.57;33.11;99059.81;5043941;28;20025;-39
2021/05/03 01:27:53;;;;;;;16.98;3.55;;;;;;;23.67;33.08;99057.97;5045478;28;20072;-38
2021/05/03 01:30:18;;;;;;;12.60;3.28;;;;;;;23.74;33.43;99061.03;5034728;28;20497;-38
2021/05/03 01:32:44;;;;;;;17.73;3.55;;;;;;;23.85;32.60;99050.78;5047671;28;20035;-37
2021/05/03 01:35:12;;;;;;;17.83;3.63;;;;;;;23.54;32.89;99056.91;5039472;28;20381;-37
2021/05/03 01:37:37;;;;;;;16.45;3.20;;;;;;;23.11;33.64;99052.63;5050994;28;20330;-38
2021/05/03 01:40:04;;;;;;;20.77;3.70;;;;;;;23.16;33.52;99051.75;5038023;28;20031;-38
2021/05/03 01:42:30;;;;;;;14.60;3.35;;;;;;;23.23;33.41;99071.13;5032353;28;20029;-37
2021/05/03 01:44:59;;;;;;;14.13;3.50;;;;;;;23.40;33.74;99084.88;5032325;28;20040;-37
2021/05/03 01:47:24;;;;;;;13.90;3.13;;;;;;;23.18;33.55;99082.09;5035288;28;20041;-38
2021/05/03 01:49:50;;;;;;;12.73;3.20;;;;;;;23.35;33.23;99071.41;5043003;28;20042;-38
2021/05/03 01:52:15;;;;;;;11.65;2.90;;;;;;;23.12;32.96;99067.03;5036208;28;20037;-37
2021/05/03 01:54:40;;;;;;;14.05;2.95;;;;;;;23.30;32.44;99071.50;5048575;28;20036;-38
2021/05/03 01:57:06;;;;;;;15.68;3.45;;;;;;;23.05;33.40;99064.72;5030737;28;20026;-38
2021/05/03 01:59:34;;;;;;;21.33;3.33;;;;;;;22.90;34.44;99067.69;5042017;28;20460;-38
2021/05/03 02:01:59;;;;;;;15.45;3.28;;;;;;;22.79;34.40;99067.91;5038119;28;20033;-38
2021/05/03 02:04:25;;;;;;;18.95;3.25;;;;;;;22.70;34.24;99067.00;5048268;28;20139;-38
2021/05/03 02:06:50;;;;;;;16.70;3.47;;;;;;;22.34;34.75;99070.34;5035954;28;20017;-38
2021/05/03 02:09:16;;;;;;;15.82;2.92;;;;;;;22.24;34.45;99051.53;5043920;28;20021;-37
2021/05/03 02:11:41;;;;;;;15.55;3.08;;;;;;;22.88;33.30;99073.41;5042817;28;20048;-38
2021/05/03 02:14:08;;;;;;;14.48;3.03;;;;;;;22.82;32.70;99078.13;5036971;28;20418;-37
2021/05/03 02:16:34;;;;;;;10.15;2.70;;;;;;;22.64;32.81;99090.69;5032462;28;20415;-37
2021/05/03 02:18:59;;;;;;;12.57;2.78;;;;;;;22.41;32.85;99099.78;5045652;28;20056;-38
2021/05/03 02:21:25;;;;;;;12.90;3.00;;;;;;;22.37;32.28;99101.47;5031498;28;20370;-38
2021/05/03 02:23:50;;;;;;;14.02;3.15;;;;;;;22.60;31.59;99103.25;5044482;28;20021;-38
2021/05/03 02:26:16;;;;;;;16.08;3.05;;;;;;;22.34;31.26;99104.78;5035356;28;20469;-38
2021/05/03 02:28:41;;;;;;;12.77;2.88;;;;;;;22.57;30.58;99100.31;5034471;28;20468;-38
2021/05/03 02:31:07;;;;;;;18.02;2.60;;;;;;;22.50;30.26;99111.53;5044570;28;20032;-38
2021/05/03 02:33:32;;;;;;;14.55;3.10;;;;;;;22.68;30.21;99103.66;5031323;28;20049;-38
2021/05/03 02:35:58;;;;;;;18.73;2.50;;;;;;;22.54;29.65;99111.75;5044881;28;20068;-37
2021/05/03 02:38:24;;;;;;;24.38;3.13;;;;;;;22.47;29.21;99111.34;5034518;28;20120;-38
2021/05/03 02:40:49;;;;;;;16.67;2.88;;;;;;;22.31;29.39;99113.50;5051315;28;20068;-36
2021/05/03 02:43:15;;;;;;;14.30;2.72;;;;;;;22.64;29.17;99108.88;5041959;28;20021;-38
2021/05/03 02:45:40;;;;;;;10.00;2.47;;;;;;;22.44;29.70;99124.38;5042097;28;20127;-38
2021/05/03 02:48:06;;;;;;;12.90;2.65;;;;;;;22.50;30.15;99135.94;5038872;28;20056;-38
2021/05/03 02:50:31;;;;;;;9.93;2.70;;;;;;;22.38;30.23;99151.88;5030914;28;20048;-38
2021/05/03 02:52:57;;;;;;;15.52;2.60;;;;;;;22.58;30.15;99167.81;5036233;28;20040;-37
2021/05/03 02:55:22;;;;;;;15.35;2.80;;;;;;;22.34;29.96;99162.50;5042035;28;20017;-38
2021/05/03 02:57:48;;;;;;;11.27;2.80;;;;;;;22.44;30.20;99164.22;5030862;28;20026;-38
2021/05/03 03:00:34;;;;;;;10.38;2.53;;;;;;;22.38;30.18;99170.84;5030756;28;20033;-38
2021/05/03 03:02:59;;;;;;;12.40;2.70;;;;;;;22.23;29.62;99183.50;5022263;28;20016;-38
2021/05/03 03:05:25;;;;;;;12.88;2.63;;;;;;;21.98;29.76;99181.97;5040336;28;20033;-38
2021/05/03 03:07:51;;;;;;;13.25;2.35;;;;;;;22.13;29.02;99183.66;5030733;28;20448;-38
2021/05/03 03:10:17;;;;;;;18.23;2.70;;;;;;;22.05;29.18;99182.41;5046877;28;20183;-38
2021/05/03 03:12:43;;;;;;;13.05;2.60;;;;;;;22.00;29.72;99184.38;5033936;28;20132;-38
2021/05/03 03:15:10;;;;;;;10.05;2.50;;;;;;;21.91;29.60;99196.97;5050329;28;20032;-38
2021/05/03 03:17:36;;;;;;;12.43;2.58;;;;;;;21.78;30.08;99193.06;5038941;28;20481;-38
2021/05/03 03:20:03;;;;;;;13.48;3.13;;;;;;;21.89;29.64;99208.09;5044086;28;20052;-38
2021/05/03 03:22:29;;;;;;;10.35;2.70;;;;;;;21.91;29.98;99216.72;5033373;28;20111;-38
2021/05/03 03:24:54;;;;;;;11.95;2.67;;;;;;;21.96;29.16;99215.88;5045274;28;20428;-37
2021/05/03 03:27:20;;;;;;;15.18;3.25;;;;;;;21.95;29.02;99225.91;5038598;28;20128;-38
2021/05/03 03:29:45;;;;;;;10.63;2.80;;;;;;;21.81;29.64;99230.41;5038313;28;20033;-37
2021/05/03 03:32:11;;;;;;;18.05;3.00;;;;;;;21.66;28.95;99240.31;5045790;28;20059;-37
2021/05/03 03:34:36;;;;;;;9.30;3.05;;;;;;;21.52;28.95;99239.41;5031324;28;20098;-38
2021/05/03 03:37:01;;;;;;;8.18;2.80;;;;;;;21.29;28.99;99230.97;5036225;28;20024;-38
2021/05/03 03:39:27;;;;;;;12.45;3.33;;;;;;;21.32;28.91;99232.28;5040806;28;20025;-38
2021/05/03 03:41:52;;;;;;;13.00;3.45;;;;;;;21.43;29.12;99239.19;5043027;28;20029;-38
2021/05/03 03:44:18;;;;;;;11.18;3.03;;;;;;;21.39;29.29;99238.16;5033637;28;20022;-38
2021/05/03 03:46:43;;;;;;;14.73;6.47;;;;;;;21.40;29.09;99237.09;5046408;28;20531;-37
2021/05/03 03:49:09;;;;;;;23.45;10.02;;;;;;;21.44;29.27;99240.84;5030057;28;20129;-38
2021/05/03 03:51:34;;;;;;;23.58;11.93;;;;;;;21.57;28.70;99244.78;5040900;28;20461;-39
2021/05/03 03:54:00;;;;;;;11.40;3.08;;;;;;;21.71;29.00;99253.00;5036243;28;20029;-38
2021/05/03 03:56:27;;;;;;;12.43;2.97;;;;;;;21.46;29.07;99251.41;5048575;28;20032;-38
2021/05/03 03:58:53;;;;;;;8.05;2.70;;;;;;;21.73;28.86;99250.03;5054254;28;20107;-38
2021/05/03 04:01:18;;;;;;;10.75;2.45;;;;;;;21.74;28.81;99248.91;5046113;28;20022;-38
2021/05/03 04:03:48;;;;;;;11.88;2.80;;;;;;;21.79;28.83;99248.84;5045879;28;20090;-38
2021/05/03 04:06:21;;;;;;;12.38;2.90;;;;;;;21.78;28.70;99248.06;5054019;28;20056;-38
2021/05/03 04:09:08;;;;;;;8.88;2.45;;;;;;;21.48;28.58;99241.88;5022090;28;20048;-38
2021/05/03 04:25:13;;;;;;;10.23;2.90;;;;;;;22.37;28.14;99251.38;5047935;28;20165;-38
2021/05/03 04:27:39;;;;;;;16.05;7.72;;;;;;;22.25;28.84;99265.31;5044617;28;20027;-38
2021/05/03 04:30:11;;;;;;;11.20;3.28;;;;;;;21.96;29.19;99272.75;5039176;28;20108;-38
2021/05/03 04:32:37;;;;;;;12.05;2.80;;;;;;;22.03;29.65;99274.00;5050254;28;20121;-37
2021/05/03 04:35:03;;;;;;;27.75;14.55;;;;;;;22.16;28.70;99267.06;5038431;28;20029;-37
2021/05/03 04:37:28;;;;;;;35.22;16.50;;;;;;;21.98;28.71;99275.97;5043622;28;20436;-38
2021/05/03 04:39:54;;;;;;;12.55;3.78;;;;;;;22.25;28.92;99267.25;5018976;28;20025;-38
2021/05/03 04:42:19;;;;;;;11.98;2.97;;;;;;;22.33;28.81;99272.03;5021281;28;20088;-38
2021/05/03 04:44:45;;;;;;;12.82;4.93;;;;;;;22.36;28.90;99286.88;5050136;28;20469;-38
2021/05/03 04:47:10;;;;;;;23.63;13.50;;;;;;;22.42;28.91;99300.06;5033088;28;20485;-37
2021/05/03 04:49:36;;;;;;;8.68;2.70;;;;;;;22.39;29.02;99307.97;5033323;28;20033;-37
2021/05/03 04:52:01;;;;;;;10.40;3.50;;;;;;;22.53;28.29;99311.56;5033235;28;20022;-37
2021/05/03 04:54:27;;;;;;;18.60;5.30;;;;;;;22.60;28.55;99313.94;5034389;28;20064;-37
2021/05/03 04:56:52;;;;;;;8.55;2.30;;;;;;;22.65;28.80;99319.25;5046383;28;20034;-37
2021/05/03 04:59:17;;;;;;;10.48;2.20;;;;;;;22.71;28.51;99328.13;5033274;28;20425;-37
2021/05/03 05:01:43;;;;;;;11.32;2.20;;;;;;;22.75;28.46;99327.25;5044763;28;20473;-38
2021/05/03 05:04:08;;;;;;;12.23;2.95;;;;;;;22.94;28.30;99321.00;5052750;28;20381;-38
2021/05/03 05:06:34;;;;;;;13.77;2.33;;;;;;;23.13;28.01;99321.00;5048899;28;20022;-37
2021/05/03 05:09:04;;;;;;;11.95;2.55;;;;;;;23.26;27.79;99317.50;5038555;28;20021;-37
2021/05/03 05:11:31;;;;;;;10.98;2.10;;;;;;;23.02;28.16;99320.34;5045240;28;20071;-38
2021/05/03 05:13:56;;;;;;;6.75;2.63;;;;;;;23.14;28.43;99333.47;5044902;28;20033;-38
2021/05/03 05:16:22;;;;;;;13.65;2.60;;;;;;;22.95;28.37;99333.47;5052533;28;20021;-38
2021/05/03 05:18:48;;;;;;;10.63;2.55;;;;;;;22.80;28.54;99332.59;5036607;28;20552;-39
2021/05/03 05:21:14;;;;;;;10.65;3.17;;;;;;;22.99;28.18;99329.06;5043646;28;20082;-38
2021/05/03 05:23:39;;;;;;;12.20;3.53;;;;;;;23.06;28.01;99342.28;5042286;28;20449;-38
2021/05/03 05:26:07;;;;;;;10.35;2.53;;;;;;;23.22;27.66;99355.28;5037857;28;20038;-39
2021/05/03 05:28:33;;;;;;;11.00;2.60;;;;;;;23.29;27.34;99341.34;5049240;28;20040;-37
2021/05/03 05:30:58;;;;;;;7.43;2.20;;;;;;;23.29;27.54;99351.41;5037966;28;20040;-37
2021/05/03 05:33:24;;;;;;;10.80;2.30;;;;;;;23.95;26.91;99352.13;5043258;28;20481;-39
2021/05/03 05:35:49;;;;;;;8.27;2.03;;;;;;;23.86;27.01;99345.81;5044712;28;20095;-37
2021/05/03 05:38:15;;;;;;;12.40;2.25;;;;;;;23.41;27.43;99351.72;5036327;28;20083;-39
2021/05/03 05:40:40;;;;;;;14.32;2.47;;;;;;;24.02;26.98;99368.03;5049241;28;20032;-38
2021/05/03 05:43:06;;;;;;;13.02;2.22;;;;;;;23.88;26.97;99355.25;5038342;28;20555;-38
2021/05/03 05:45:31;;;;;;;16.45;2.53;;;;;;;24.05;27.03;99354.66;5041547;28;20040;-38
2021/05/03 05:47:57;;;;;;;8.57;2.20;;;;;;;24.29;26.59;99348.19;5034419;28;20113;-38
2021/05/03 05:50:22;;;;;;;5.80;2.15;;;;;;;24.90;26.14;99357.75;5045792;28;20033;-38
2021/05/03 05:52:48;;;;;;;12.27;2.40;;;;;;;24.68;26.49;99339.47;5051641;28;20025;-38
2021/05/03 05:55:13;;;;;;;9.02;2.40;;;;;;;24.62;26.47;99354.31;5051416;28;20531;-38
2021/05/03 05:57:39;;;;;;;48.30;25.88;;;;;;;24.21;26.90;99360.56;5049821;28;20021;-38
2021/05/03 06:00:05;;;;;;;11.00;2.90;;;;;;;24.32;26.84;99366.63;5036685;28;20025;-37
2021/05/03 06:02:30;;;;;;;16.30;2.72;;;;;;;24.21;26.70;99374.16;5047604;28;20131;-38
2021/05/03 06:04:55;;;;;;;10.48;2.30;;;;;;;24.09;27.44;99363.81;5033090;28;20048;-38
2021/05/03 06:07:21;;;;;;;9.38;2.20;;;;;;;24.64;27.24;99375.78;5031015;28;20029;-37
2021/05/03 06:09:46;;;;;;;11.82;2.60;;;;;;;25.01;27.11;99360.22;5043224;28;20036;-37
2021/05/03 06:12:12;;;;;;;7.82;2.17;;;;;;;24.57;27.39;99362.56;5033817;28;20053;-38
2021/05/03 06:14:37;;;;;;;10.45;2.13;;;;;;;24.78;27.31;99374.59;5033746;28;20033;-38
2021/05/03 06:17:03;;;;;;;10.30;2.50;;;;;;;24.07;28.02;99387.78;5044158;28;20063;-37
2021/05/03 06:19:28;;;;;;;8.98;2.38;;;;;;;24.38;27.37;99382.50;5040329;28;20020;-37
2021/05/03 06:21:54;;;;;;;10.73;2.70;;;;;;;24.09;28.13;99382.84;5050477;28;20436;-38
2021/05/03 06:24:19;;;;;;;14.02;2.30;;;;;;;24.75;27.58;99385.28;5032370;28;20017;-38
2021/05/03 06:26:44;;;;;;;8.55;2.30;;;;;;;24.64;27.75;99387.44;5030723;28;20026;-38
2021/05/03 06:29:10;;;;;;;20.17;2.47;;;;;;;24.38;27.72;99343.66;5030827;28;20025;-38
2021/05/03 06:31:35;;;;;;;10.30;2.42;;;;;;;24.67;27.59;99389.53;5030851;28;20025;-38
2021/05/03 06:34:01;;;;;;;9.35;2.35;;;;;;;25.08;27.59;99396.78;5030401;28;20041;-37
2021/05/03 06:36:26;;;;;;;11.88;2.50;;;;;;;25.07;27.63;99384.28;5030672;28;20434;-37
2021/05/03 06:38:52;;;;;;;8.35;2.25;;;;;;;25.28;27.48;99391.97;5030718;28;20367;-38
2021/05/03 06:41:17;;;;;;;8.23;2.55;;;;;;;25.07;28.51;99402.53;5030548;28;20026;-37
2021/05/03 06:43:43;;;;;;;8.13;2.50;;;;;;;25.04;28.40;99412.13;5030343;28;20017;-37
2021/05/03 06:46:08;;;;;;;13.40;2.78;;;;;;;24.85;28.61;99409.56;5030617;28;20025;-37
2021/05/03 06:48:35;;;;;;;12.50;2.30;;;;;;;25.67;28.07;99413.06;5029581;28;20448;-37
2021/05/03 06:51:00;;;;;;;13.48;2.67;;;;;;;25.71;28.33;99405.06;5030182;28;20025;-38
2021/05/03 06:53:25;;;;;;;10.73;2.50;;;;;;;25.79;27.04;99400.78;5030400;28;20073;-38
2021/05/03 06:55:51;;;;;;;27.50;12.35;;;;;;;25.96;27.40;99403.63;5017498;28;20021;-37
2021/05/03 06:58:16;;;;;;;8.77;2.60;;;;;;;25.96;27.48;99403.63;5018137;28;20514;-36
2021/05/03 07:00:42;;;;;;;6.03;2.30;;;;;;;26.45;25.88;99403.63;5030370;28;20033;-37
2021/05/03 07:03:11;;;;;;;6.55;2.20;;;;;;;26.90;25.78;99395.19;5028178;28;20025;-38
2021/05/03 07:05:37;;;;;;;;;;;;;;;26.53;25.75;99395.44;5019704;28;20029;-39
2021/05/03 07:08:02;;;;;;;6.70;2.28;;;;;;;27.03;25.06;99415.28;5030247;28;19908;-37
2021/05/03 07:10:28;;;;;;;13.55;2.50;;;;;;;27.05;25.38;99416.53;5030022;28;20022;-38
2021/05/03 07:12:54;;;;;;;21.38;2.53;;;;;;;27.62;24.87;99409.28;5029892;28;20042;-52
2021/05/03 07:15:19;;;;;;;8.50;2.22;;;;;;;27.55;25.02;99411.72;5011587;28;20021;-52
2021/05/03 07:17:46;;;;;;;13.93;3.25;;;;;;;27.65;26.45;99412.16;5027222;28;20026;-51
2021/05/03 07:20:12;;;;;;;16.58;2.60;;;;;;;27.22;25.95;99407.53;5029637;28;20031;-52
2021/05/03 07:22:37;;;;;;;10.20;2.40;;;;;;;27.10;26.19;99404.69;5028988;28;20021;-52
2021/05/03 07:25:05;;;;;;;11.13;2.78;;;;;;;26.85;25.87;99404.34;5028505;28;20040;-53
2021/05/03 07:27:31;;;;;;;11.68;2.42;;;;;;;26.40;26.72;99399.09;5029425;28;20029;-52
2021/05/03 07:29:56;;;;;;;11.80;2.80;;;;;;;26.69;26.98;99389.56;5028461;28;20025;-53
2021/05/03 07:32:22;;;;;;;10.93;2.85;;;;;;;27.18;26.48;99405.78;5029348;28;20471;-52
2021/05/03 07:34:47;;;;;;;8.73;2.70;;;;;;;27.14;26.60;99399.38;5029886;28;20029;-52
2021/05/03 07:37:13;;;;;;;13.38;2.70;;;;;;;27.25;26.38;99412.41;5029045;28;20026;-51
2021/05/03 07:39:38;;;;;;;18.00;3.38;;;;;;;27.56;26.24;99421.53;5029249;28;20032;-52
2021/05/03 07:42:04;;;;;;;12.90;3.10;;;;;;;27.60;26.27;99417.81;5029277;28;20029;-54
2021/05/03 07:44:31;;;;;;;10.13;2.80;;;;;;;27.31;26.85;99413.03;5029488;28;20021;-51
2021/05/03 07:46:56;;;;;;;10.65;2.50;;;;;;;27.17;27.07;99424.13;5029354;28;20083;-52
2021/05/03 07:49:21;;;;;;;13.30;2.95;;;;;;;27.03;26.99;99415.28;5029441;28;20025;-52
2021/05/03 07:51:47;;;;;;;10.52;2.90;;;;;;;27.17;27.19;99415.91;5028144;28;20041;-52
2021/05/03 07:54:15;;;;;;;7.93;3.10;;;;;;;27.57;27.30;99412.19;5029824;28;20025;-52
2021/05/03 07:56:42;;;;;;;12.43;3.10;;;;;;;28.09;27.03;99412.06;5028765;28;20116;-52
2021/05/03 07:59:07;;;;;;;11.73;2.80;;;;;;;27.81;27.00;99409.69;5028163;28;20072;-51
2021/05/03 08:01:33;;;;;;;17.02;3.08;;;;;;;27.76;26.80;99409.06;5026195;28;20060;-52
2021/05/03 08:03:58;;;;;;;12.70;2.75;;;;;;;27.87;27.34;99407.59;5028402;28;20021;-52
2021/05/03 08:06:24;;;;;;;8.52;2.53;;;;;;;27.83;26.54;99409.38;5028738;28;20022;-51
2021/05/03 08:08:49;;;;;;;10.32;2.70;;;;;;;27.43;27.36;99410.44;5028475;28;20044;-52
2021/05/03 08:11:15;;;;;;;11.00;3.10;;;;;;;27.24;27.82;99415.41;5028737;28;20017;-53
2021/05/03 08:13:42;;;;;;;10.23;2.95;;;;;;;27.87;27.49;99413.06;5025863;28;20132;-51
2021/05/03 08:16:11;;;;;;;12.05;2.80;;;;;;;28.25;26.87;99410.38;5024507;28;20022;-55
2021/05/03 08:18:37;;;;;;;8.45;2.58;;;;;;;28.31;26.55;99404.69;5026738;28;20419;-54
2021/05/03 08:21:03;;;;;;;8.00;3.00;;;;;;;28.64;26.41;99411.13;5028995;28;20026;-53
2021/05/03 08:23:28;;;;;;;14.32;2.75;;;;;;;28.97;26.34;99412.34;5028900;28;20049;-53
2021/05/03 08:25:54;;;;;;;12.20;2.88;;;;;;;28.98;26.19;99403.00;5029069;28;20424;-52
2021/05/03 08:28:20;;;;;;;8.80;2.60;;;;;;;29.38;25.99;99414.25;5029181;28;20101;-53
2021/05/03 08:30:46;;;;;;;6.00;2.72;;;;;;;30.04;25.78;99411.78;5028778;28;20029;-51
2021/05/03 08:33:11;;;;;;;7.38;2.47;;;;;;;29.95;25.27;99411.88;5028875;28;20059;-52
2021/05/03 08:35:37;;;;;;;16.10;3.25;;;;;;;29.68;25.57;99419.56;5029234;28;20025;-53
2021/05/03 08:38:03;;;;;;;13.18;2.95;;;;;;;29.63;25.46;99417.88;5027180;28;20022;-52
2021/05/03 08:40:28;;;;;;;9.55;2.28;;;;;;;29.00;26.87;99425.38;5017553;28;20417;-52
2021/05/03 08:42:55;;;;;;;10.68;2.58;;;;;;;29.28;26.29;99422.88;5024505;28;20083;-52
2021/05/03 08:45:21;;;;;;;13.52;2.60;;;;;;;29.18;26.41;99404.13;5012411;28;20098;-53
2021/05/03 08:53:19;;;;;;;6.93;2.53;;;;;;;29.41;25.04;99391.66;5030067;28;20021;-51
2021/05/03 08:55:45;;;;;;;9.68;2.30;;;;;;;29.67;24.74;99381.56;5028810;28;20484;-55
2021/05/03 08:58:11;;;;;;;8.30;2.60;;;;;;;29.44;24.76;99387.44;5032304;28;20036;-51
2021/05/03 09:00:36;;;;;;;8.45;2.40;;;;;;;29.44;24.89;99377.28;5028298;28;20018;-51
2021/05/03 09:03:04;;;;;;;11.02;2.30;;;;;;;28.50;26.04;99396.06;5029092;28;20033;-52
2021/05/03 09:05:31;;;;;;;6.55;2.17;;;;;;;28.81;26.00;99390.25;5030405;28;20021;-51
2021/05/03 09:07:57;;;;;;;8.00;1.98;;;;;;;28.89;25.41;99383.09;5032296;28;20021;-53
2021/05/03 09:10:23;;;;;;;9.25;2.17;;;;;;;29.29;24.87;99399.06;5032032;28;20480;-50
2021/05/03 09:12:49;;;;;;;7.32;2.42;;;;;;;29.53;24.77;99404.59;5031779;28;20044;-52
2021/05/03 09:15:24;;;;;;;8.57;2.30;;;;;;;29.27;23.04;99399.38;5032043;28;20021;-52
2021/05/03 09:17:50;;;;;;;7.53;1.85;;;;;;;29.58;23.70;99385.19;5030645;28;20104;-51
2021/05/03 09:20:18;;;;;;;7.47;2.60;;;;;;;29.63;23.52;99384.19;5032045;28;20105;-51
2021/05/03 09:25:21;;;;;;;10.27;2.30;;;;;;;28.16;25.86;99384.19;5031856;28;20344;-53
2021/05/03 09:27:47;;;;;;;9.17;2.27;;;;;;;28.76;25.30;99391.22;5022682;28;20036;-53
2021/05/03 09:30:36;;;;;;;12.30;2.40;;;;;;;29.28;23.30;99370.03;5017326;28;20021;-52
2021/05/03 09:33:19;;;;;;;10.98;2.50;;;;;;;30.31;22.47;99396.56;5010335;28;20054;-52
2021/05/03 09:36:05;;;;;;;6.40;2.47;;;;;;;30.44;23.08;99391.91;5018207;28;20049;-52
2021/05/03 09:38:41;;;;;;;9.93;2.10;;;;;;;30.35;21.16;99390.09;5020536;28;20132;-54
2021/05/03 09:41:26;;;;;;;3.95;1.63;;;;;;;30.35;20.92;99384.63;5018584;28;20057;-52
2021/05/03 09:43:54;;;;;;;6.20;1.73;;;;;;;29.53;20.74;99377.19;5029254;28;20025;-53
2021/05/03 09:46:30;;;;;;;9.60;1.77;;;;;;;29.70;21.37;99392.66;5011871;28;20026;-53
2021/05/03 09:48:57;;;;;;;6.05;2.08;;;;;;;30.31;20.61;99378.19;5030750;28;20100;-53
2021/05/03 09:51:30;;;;;;;5.50;1.52;;;;;;;30.42;19.62;99385.97;5031638;28;20021;-52
2021/05/03 09:54:03;;;;;;;7.88;1.80;;;;;;;30.53;19.50;99400.81;5030832;28;20067;-52
2021/05/03 09:56:44;;;;;;;5.35;1.80;;;;;;;29.82;20.60;99397.38;5031495;28;20017;-50
2021/05/03 09:59:28;;;;;;;6.20;1.80;;;;;;;29.60;21.40;99401.28;5031433;28;20396;-52
2021/05/03 10:02:07;;;;;;;6.22;1.77;;;;;;;29.07;22.50;99394.69;5025912;28;20033;-51
2021/05/03 10:04:34;;;;;;;8.07;2.10;;;;;;;29.61;23.33;99402.91;5013861;28;20032;-51
2021/05/03 10:06:59;;;;;;;6.00;1.88;;;;;;;29.68;22.26;99400.38;5025696;28;20466;-53
2021/05/03 10:09:26;;;;;;;6.15;1.80;;;;;;;29.62;22.43;99391.63;5031410;28;20120;-52
2021/05/03 10:11:53;;;;;;;8.88;2.17;;;;;;;29.41;22.82;99391.66;5030720;28;20048;-52
2021/05/03 10:14:19;;;;;;;10.07;2.17;;;;;;;30.02;22.43;99387.44;5031524;28;20048;-53
2021/05/03 10:16:45;;;;;;;4.90;1.88;;;;;;;29.50;22.32;99399.00;5029687;28;20165;-53
2021/05/03 10:19:11;;;;;;;7.25;1.90;;;;;;;29.73;22.05;99386.50;5030203;28;20481;-51
2021/05/03 10:21:36;;;;;;;7.70;2.15;;;;;;;29.69;21.69;99377.34;5030219;28;20567;-52
2021/05/03 10:24:02;;;;;;;8.10;1.98;;;;;;;29.50;21.92;99383.34;5030935;28;20394;-53
2021/05/03 10:26:27;;;;;;;10.98;2.25;;;;;;;29.69;21.84;99380.06;5013796;28;20127;-52
2021/05/03 10:28:57;;;;;;;6.55;1.65;;;;;;;29.89;21.68;99386.66;5031472;28;20095;-53
2021/05/03 10:31:23;;;;;;;3.85;1.55;;;;;;;29.70;21.70;99384.44;5031620;28;20366;-52
2021/05/03 10:33:49;;;;;;;5.88;1.60;;;;;;;30.00;21.50;99384.25;5031285;28;20033;-53
2021/05/03 10:36:50;;;;;;;9.05;2.10;;;;;;;30.31;21.58;99399.31;5031173;28;20033;-38
2021/05/03 10:39:30;;;;;;;9.20;2.00;;;;;;;29.86;22.16;99394.75;5008472;28;20037;-52
2021/05/03 10:42:03;;;;;;;6.95;2.10;;;;;;;30.25;21.72;99382.28;5028228;28;20401;-53
2021/05/03 10:44:28;;;;;;;9.40;2.00;;;;;;;29.70;22.87;99380.88;5030429;28;20097;-53
2021/05/03 10:47:03;;;;;;;12.93;2.28;;;;;;;29.53;22.61;99390.91;5030639;28;20028;-52
2021/05/03 10:49:33;;;;;;;7.13;2.10;;;;;;;29.71;22.34;99374.25;5029305;28;20045;-52
2021/05/03 10:52:07;;;;;;;9.18;1.90;;;;;;;29.82;22.64;99387.19;5030822;28;20040;-54
2021/05/03 10:54:50;;;;;;;7.22;1.70;;;;;;;29.34;22.96;99376.91;5030284;28;20026;-53
2021/05/03 10:57:15;;;;;;;7.07;1.88;;;;;;;29.70;22.97;99375.38;5030563;28;20013;-52
2021/05/03 10:59:45;;;;;;;6.03;1.80;;;;;;;30.38;22.84;99374.88;5030760;28;20017;-53
2021/05/03 11:02:12;;;;;;;7.75;1.73;;;;;;;29.76;22.55;99363.09;5030698;28;20044;-52
2021/05/03 11:04:39;;;;;;;5.35;1.88;;;;;;;30.06;22.08;99368.34;5029642;28;20472;-53
2021/05/03 11:07:09;;;;;;;7.00;2.00;;;;;;;29.87;22.49;99369.72;5030243;28;20052;-53
2021/05/03 11:09:39;;;;;;;18.08;2.78;;;;;;;29.73;22.15;99366.53;5030059;28;20030;-52
2021/05/03 11:12:10;;;;;;;8.88;2.90;;;;;;;30.34;21.83;99360.25;5030283;28;20087;-54
2021/05/03 11:14:37;;;;;;;5.40;2.28;;;;;;;30.42;21.85;99356.56;5030159;28;20055;-53
2021/05/03 11:17:03;;;;;;;7.10;1.90;;;;;;;30.09;22.00;99348.47;5029491;28;20029;-54
2021/05/03 11:22:08;;;;;;;5.55;2.20;;;;;;;29.96;22.33;99345.72;5030853;28;20036;-52
2021/05/03 11:24:37;;;;;;;5.88;1.90;;;;;;;29.80;22.30;99353.06;5030537;28;20022;-52
2021/05/03 11:32:38;;;;;;;6.10;1.98;;;;;;;30.06;22.10;99357.38;5030935;28;20030;-53
2021/05/03 11:35:28;;;;;;;7.57;2.10;;;;;;;30.70;21.93;99355.84;5030268;28;20045;-53
2021/05/03 11:38:01;;;;;;;5.32;2.13;;;;;;;30.19;22.04;99343.31;5029452;28;20358;-52
2021/05/03 11:40:46;;;;;;;6.43;1.92;;;;;;;30.26;20.69;99341.94;5036091;28;20024;-53
2021/05/03 11:46:32;;;;;;;7.70;2.10;;;;;;;30.13;21.88;99336.47;5030165;28;20410;-52
2021/05/03 11:49:01;;;;;;;6.07;1.80;;;;;;;30.90;21.81;99338.41;5039177;28;20199;-53
2021/05/03 11:51:27;;;;;;;4.85;2.00;;;;;;;31.53;21.61;99334.22;5036236;28;20028;-52
2021/05/03 11:53:53;;;;;;;6.47;2.10;;;;;;;32.10;20.46;99343.03;5046378;28;20448;-52
2021/05/03 11:56:28;;;;;;;9.32;2.50;;;;;;;31.09;20.25;99343.25;5034074;28;20013;-52
2021/05/03 11:58:55;;;;;;;7.88;2.50;;;;;;;30.75;20.31;99337.16;5035325;28;20037;-53
2021/05/03 12:01:22;;;;;;;6.90;2.55;;;;;;;30.27;21.07;99324.31;5041839;28;20377;-52